Laramie, Wyoming
Current Conditions -  °F | °C
As of 1:53 PM on Tuesday 21 Oct 2014 (Local Time) from KLAR Reporting Station
Light Rain Light Rain  
Wind Chill: 15°   Ceiling: 8500
Heat Index: 15°   Visibility: 10mi
Dew Point:   Wind: 21mph
Humidity: 44%   Direction: 230°SW
Pressure: 30.04"   Gusts: 28mph
Location:  41.31°N, 105.59°W
Report Text: KLAR 211953Z AUTO 23018G24KT 10SM -RA OVC085 15/03 A3004 RMK AO2 PK WND 23027/1943 RAB44 SLP110 P0000 T01500028
Loading
Personal Weather Stations






























Interactive Weather Map
Tropical Storm Tracking
New forecast layout! Learn more

10-Day Weather Forecast

Advertisements
Track Severe Weather on mobile